createdAt,value
2019-02-27T00:03:29.199Z,1.90
2019-02-27T00:18:34.497Z,2.20
2019-02-27T00:33:52.420Z,2.20
2019-02-27T00:48:59.358Z,1.80
2019-02-27T01:04:04.475Z,1.50
2019-02-27T01:19:09.824Z,1.00
2019-02-27T01:34:26.760Z,0.60
2019-02-27T01:49:31.816Z,0.30
2019-02-27T02:04:52.950Z,0.10
2019-02-27T02:20:00.212Z,0.00
2019-02-27T02:35:06.572Z,-0.10
2019-02-27T02:50:17.407Z,-0.30
2019-02-27T03:05:23.613Z,-0.30
2019-02-27T03:20:32.049Z,-0.30
2019-02-27T03:35:40.618Z,-0.50
2019-02-27T03:51:06.417Z,-0.80
2019-02-27T04:06:19.999Z,-1.20
2019-02-27T04:21:24.935Z,-1.20
2019-02-27T04:36:40.866Z,-1.20
2019-02-27T04:51:48.060Z,-1.10
2019-02-27T05:07:05.212Z,-1.00
2019-02-27T05:22:10.812Z,-1.10
2019-02-27T05:37:16.260Z,-1.10
2019-02-27T05:52:21.270Z,-1.20
2019-02-27T06:07:26.538Z,-1.40
2019-02-27T06:22:44.238Z,-1.50
2019-02-27T06:37:50.730Z,-1.40
2019-02-27T06:52:57.033Z,-1.30
2019-02-27T07:08:15.370Z,-1.10
2019-02-27T07:23:32.405Z,-0.90
2019-02-27T07:38:38.706Z,-0.40
2019-02-27T07:53:44.339Z,0.20
2019-02-27T08:09:01.670Z,0.80
2019-02-27T08:24:19.821Z,1.70
2019-02-27T08:39:24.921Z,2.70
2019-02-27T08:54:32.160Z,4.10
2019-02-27T09:09:36.771Z,5.50
2019-02-27T09:24:43.791Z,6.90
2019-02-27T09:39:48.869Z,8.00
2019-02-27T09:54:54.880Z,8.80
2019-02-27T10:10:00.297Z,9.60
2019-02-27T10:25:08.524Z,10.50
2019-02-27T10:40:17.071Z,11.20
2019-02-27T10:55:23.420Z,11.60
2019-02-27T11:10:28.823Z,12.50
2019-02-27T11:25:34.420Z,12.20
2019-02-27T11:40:42.596Z,12.10
2019-02-27T11:55:47.295Z,11.50
2019-02-27T12:10:53.177Z,11.40
2019-02-27T12:25:59.899Z,11.60
2019-02-27T12:41:06.176Z,12.50
2019-02-27T12:56:30.377Z,13.10
2019-02-27T13:11:35.628Z,13.30
2019-02-27T13:26:41.004Z,13.50
2019-02-27T13:41:46.752Z,13.40
2019-02-27T13:56:51.599Z,13.60
2019-02-27T14:11:58.731Z,13.70
2019-02-27T14:27:03.495Z,13.80
2019-02-27T14:42:08.982Z,13.80
2019-02-27T14:57:16.054Z,14.00
2019-02-27T15:12:21.174Z,13.50
2019-02-27T15:27:26.248Z,13.00
2019-02-27T15:42:32.205Z,12.60
2019-02-27T15:57:38.779Z,12.00
2019-02-27T16:12:43.880Z,11.40
2019-02-27T16:27:49.259Z,10.80
2019-02-27T16:42:54.548Z,10.30
2019-02-27T16:58:01.734Z,9.70
2019-02-27T17:13:06.171Z,9.20
2019-02-27T17:28:12.115Z,8.90
2019-02-27T17:43:18.039Z,8.60
2019-02-27T17:58:23.224Z,8.50
2019-02-27T18:13:28.453Z,8.60
2019-02-27T18:28:34.862Z,8.40
2019-02-27T18:43:40.127Z,8.20
2019-02-27T18:58:45.922Z,8.10
2019-02-27T19:13:51.352Z,7.90
2019-02-27T19:28:59.325Z,7.90
2019-02-27T19:44:03.282Z,7.40
2019-02-27T19:59:08.835Z,7.10
2019-02-27T20:14:14.103Z,6.80
2019-02-27T20:29:20.397Z,6.70
2019-02-27T20:44:25.837Z,6.40
2019-02-27T20:59:30.981Z,6.20
2019-02-27T21:14:36.103Z,6.00
2019-02-27T21:29:43.368Z,5.90
2019-02-27T21:44:48.535Z,5.60
2019-02-27T21:59:55.184Z,5.40
2019-02-27T22:15:00.642Z,5.00
2019-02-27T22:30:09.004Z,4.80
2019-02-27T22:45:18.014Z,5.10
2019-02-27T23:00:37.039Z,5.50
2019-02-27T23:15:42.133Z,5.40
2019-02-27T23:30:48.015Z,5.20
2019-02-27T23:45:53.498Z,5.10
